createdAt,value
2019-05-07T00:00:19.255Z,21.47
2019-05-07T00:05:24.624Z,24.57
2019-05-07T00:10:29.802Z,21.73
2019-05-07T00:15:34.853Z,21.03
2019-05-07T00:20:42.138Z,20.93
2019-05-07T00:25:46.691Z,20.00
2019-05-07T00:30:52.183Z,19.20
2019-05-07T00:36:15.638Z,19.33
2019-05-07T00:41:45.637Z,20.70
2019-05-07T00:46:52.503Z,24.40
2019-05-07T00:51:57.992Z,29.30
2019-05-07T00:57:03.324Z,31.47
2019-05-07T01:02:08.383Z,33.60
2019-05-07T01:07:13.454Z,28.93
2019-05-07T01:12:18.892Z,21.67
2019-05-07T01:17:23.912Z,26.13
2019-05-07T01:22:29.064Z,19.83
2019-05-07T01:27:37.229Z,28.07
2019-05-07T01:32:48.599Z,22.90
2019-05-07T01:37:54.717Z,22.87
2019-05-07T01:42:59.795Z,24.23
2019-05-07T01:48:04.890Z,24.27
2019-05-07T01:53:12.122Z,25.43
2019-05-07T01:58:16.689Z,27.73
2019-05-07T02:03:32.813Z,29.07
2019-05-07T02:08:53.326Z,33.30
2019-05-07T02:13:58.442Z,34.47
2019-05-07T02:19:03.485Z,29.67
2019-05-07T02:24:08.608Z,27.60
2019-05-07T02:29:14.087Z,28.80
2019-05-07T02:34:19.184Z,29.77
2019-05-07T02:39:33.320Z,22.50
2019-05-07T02:44:56.881Z,24.37
2019-05-07T02:50:08.352Z,31.50
2019-05-07T02:55:23.504Z,26.50
2019-05-07T03:00:28.919Z,26.13
2019-05-07T03:05:34.828Z,27.03
2019-05-07T03:10:43.424Z,25.63
2019-05-07T03:15:49.014Z,24.00
2019-05-07T03:20:58.529Z,28.73
2019-05-07T03:26:24.464Z,26.83
2019-05-07T03:31:57.575Z,32.00
2019-05-07T03:37:06.099Z,31.13
2019-05-07T03:42:12.761Z,34.10
2019-05-07T03:47:19.499Z,27.83
2019-05-07T03:52:24.772Z,22.80
2019-05-07T03:57:33.026Z,23.80
2019-05-07T04:02:36.732Z,28.40
2019-05-07T04:07:42.969Z,30.20
2019-05-07T04:12:48.574Z,27.60
2019-05-07T04:17:53.858Z,29.67
2019-05-07T04:22:58.963Z,29.67
2019-05-07T04:28:23.608Z,34.33
2019-05-07T04:33:33.561Z,28.97
2019-05-07T04:38:39.544Z,29.30
2019-05-07T04:43:54.263Z,34.73
2019-05-07T04:48:59.464Z,38.90
2019-05-07T04:54:04.485Z,33.87
2019-05-07T04:59:09.785Z,34.33
2019-05-07T05:04:25.606Z,35.03
2019-05-07T05:09:23.310Z,31.77
2019-05-07T05:14:28.960Z,33.43
2019-05-07T05:19:33.998Z,34.50
2019-05-07T05:24:42.959Z,32.20
2019-05-07T05:29:48.978Z,35.27
2019-05-07T05:34:54.088Z,33.43
2019-05-07T05:40:08.059Z,38.13
2019-05-07T05:45:27.406Z,40.30
2019-05-07T05:50:37.415Z,35.80
2019-05-07T05:55:42.996Z,31.77
2019-05-07T06:01:13.197Z,36.37
2019-05-07T06:06:32.813Z,35.63
2019-05-07T06:11:55.629Z,40.13
2019-05-07T06:17:16.029Z,35.83
2019-05-07T06:22:47.171Z,32.27
2019-05-07T06:27:52.662Z,32.33
2019-05-07T06:32:57.886Z,28.10
2019-05-07T06:38:04.928Z,27.10
2019-05-07T06:43:32.660Z,29.00
2019-05-07T06:48:42.811Z,25.23
2019-05-07T06:53:44.804Z,26.33
2019-05-07T06:59:02.079Z,34.93
2019-05-07T07:04:28.285Z,31.67
2019-05-07T07:09:48.907Z,33.17
2019-05-07T07:14:58.199Z,30.87
2019-05-07T07:20:06.193Z,30.30
2019-05-07T07:25:11.909Z,32.80
2019-05-07T07:30:32.715Z,30.23
2019-05-07T07:35:38.917Z,34.37
2019-05-07T07:40:46.455Z,33.13
2019-05-07T07:45:52.593Z,27.30
2019-05-07T07:50:57.740Z,22.40
2019-05-07T07:56:20.329Z,21.13
2019-05-07T08:01:47.395Z,20.90
2019-05-07T08:07:03.204Z,22.80
2019-05-07T08:12:09.405Z,24.80
2019-05-07T08:17:14.517Z,22.20
2019-05-07T08:22:19.847Z,24.73
2019-05-07T08:27:24.945Z,25.63
2019-05-07T08:32:49.052Z,23.40
2019-05-07T08:37:54.101Z,25.67
2019-05-07T08:42:59.559Z,23.83
2019-05-07T08:48:08.148Z,23.47
2019-05-07T08:53:13.882Z,24.23
2019-05-07T08:58:19.041Z,23.70
2019-05-07T09:03:43.621Z,27.17
2019-05-07T09:08:48.810Z,26.03
2019-05-07T09:13:54.322Z,22.60
2019-05-07T09:18:59.427Z,26.20
2019-05-07T09:24:06.103Z,26.67
2019-05-07T09:29:17.205Z,23.90
2019-05-07T09:34:23.438Z,25.13
2019-05-07T09:39:29.238Z,22.30
2019-05-07T09:44:34.292Z,22.53
2019-05-07T09:49:39.350Z,22.23
2019-05-07T09:54:44.414Z,21.13
2019-05-07T09:59:49.442Z,24.13
2019-05-07T10:04:54.536Z,27.40
2019-05-07T10:10:02.930Z,27.67
2019-05-07T10:15:08.275Z,23.27
2019-05-07T10:20:21.627Z,23.97
2019-05-07T10:25:22.400Z,20.53
2019-05-07T10:30:27.232Z,19.63
2019-05-07T10:35:33.741Z,19.17
2019-05-07T10:40:38.832Z,22.17
2019-05-07T10:46:09.044Z,20.90
2019-05-07T10:51:14.308Z,19.93
2019-05-07T10:56:19.414Z,19.67
2019-05-07T11:01:32.908Z,20.20
2019-05-07T11:06:38.036Z,18.80
2019-05-07T11:11:43.132Z,17.80
2019-05-07T11:17:11.848Z,19.90
2019-05-07T11:22:17.128Z,19.23
2019-05-07T11:27:22.564Z,19.90
2019-05-07T11:32:32.031Z,20.00
2019-05-07T11:37:36.985Z,20.33
2019-05-07T11:43:02.509Z,19.13
2019-05-07T11:48:07.912Z,20.20
2019-05-07T11:53:13.671Z,16.63
2019-05-07T11:58:19.059Z,19.40
2019-05-07T12:03:24.163Z,20.33
2019-05-07T12:08:40.918Z,22.07
2019-05-07T12:13:36.335Z,21.57
2019-05-07T12:18:43.071Z,18.43
2019-05-07T12:23:48.313Z,17.90
2019-05-07T12:28:54.490Z,18.97
2019-05-07T12:34:09.279Z,18.37
2019-05-07T12:39:14.426Z,17.43
2019-05-07T12:44:22.132Z,18.63
2019-05-07T12:49:27.036Z,21.10
2019-05-07T12:54:37.892Z,19.47
2019-05-07T12:59:43.058Z,23.47
2019-05-07T13:04:48.092Z,23.50
2019-05-07T13:09:53.992Z,23.30
2019-05-07T13:14:59.066Z,20.63
2019-05-07T13:20:04.470Z,20.83
2019-05-07T13:25:09.574Z,21.83
2019-05-07T13:30:14.775Z,20.23
2019-05-07T13:35:19.884Z,20.97
2019-05-07T13:40:52.606Z,21.93
2019-05-07T13:51:12.871Z,17.77
2019-05-07T14:01:36.956Z,18.60
2019-05-07T14:06:42.993Z,19.17
2019-05-07T14:11:48.336Z,18.07
2019-05-07T14:16:53.367Z,19.92
2019-05-07T14:21:58.372Z,20.57
2019-05-07T14:27:03.408Z,17.97
2019-05-07T14:32:18.946Z,15.90
2019-05-07T14:37:34.243Z,17.60
2019-05-07T14:42:44.450Z,17.30
2019-05-07T14:47:49.512Z,17.23
2019-05-07T14:52:55.243Z,18.60
2019-05-07T14:58:01.930Z,20.80
2019-05-07T15:03:08.274Z,24.47
2019-05-07T15:08:14.415Z,24.07
2019-05-07T15:13:21.802Z,19.03
2019-05-07T15:18:46.052Z,17.40
2019-05-07T15:23:52.979Z,18.13
2019-05-07T15:29:16.744Z,20.13
2019-05-07T15:34:22.168Z,22.63
2019-05-07T15:39:27.482Z,28.33
2019-05-07T15:44:32.576Z,29.23
2019-05-07T15:49:37.668Z,21.73
2019-05-07T15:54:43.121Z,27.60
2019-05-07T15:59:52.067Z,19.13
2019-05-07T16:04:57.463Z,20.60
2019-05-07T16:10:03.043Z,20.77
2019-05-07T16:15:08.193Z,22.17
2019-05-07T16:20:14.944Z,24.57
2019-05-07T16:25:22.340Z,25.70
2019-05-07T16:30:26.782Z,21.57
2019-05-07T16:35:32.222Z,25.47
2019-05-07T16:40:37.620Z,19.20
2019-05-07T16:45:42.711Z,21.00
2019-05-07T16:50:48.132Z,22.50
2019-05-07T16:55:53.246Z,17.40
2019-05-07T17:01:02.303Z,20.83
2019-05-07T17:06:07.319Z,20.90
2019-05-07T17:11:12.417Z,18.80
2019-05-07T17:16:17.544Z,19.03
2019-05-07T17:21:22.571Z,19.87
2019-05-07T17:26:27.976Z,20.17
2019-05-07T17:31:33.221Z,19.47
2019-05-07T17:36:38.312Z,19.37
2019-05-07T17:41:43.384Z,18.93
2019-05-07T17:46:48.470Z,20.57
2019-05-07T17:51:53.476Z,20.27
2019-05-07T17:56:58.496Z,21.93
2019-05-07T18:02:26.171Z,21.77
2019-05-07T18:07:31.464Z,19.40
2019-05-07T18:12:36.941Z,19.17
2019-05-07T18:17:50.952Z,21.30
2019-05-07T18:22:55.998Z,21.23
2019-05-07T18:28:01.803Z,20.30
2019-05-07T18:33:27.953Z,19.60
2019-05-07T18:38:33.123Z,22.90
2019-05-07T18:43:38.754Z,23.33
2019-05-07T18:48:43.779Z,21.13
2019-05-07T18:53:49.212Z,22.93
2019-05-07T18:58:54.550Z,21.37
2019-05-07T19:04:02.091Z,18.97
2019-05-07T19:09:08.763Z,19.43
2019-05-07T19:14:19.387Z,20.33
2019-05-07T19:19:25.043Z,18.87
2019-05-07T19:24:44.190Z,20.47
2019-05-07T19:29:42.324Z,20.67
2019-05-07T19:34:45.761Z,20.83
2019-05-07T19:39:52.342Z,22.00
2019-05-07T19:44:57.913Z,23.87
2019-05-07T19:50:03.409Z,23.13
2019-05-07T19:55:17.508Z,21.77
2019-05-07T20:00:24.359Z,20.10
2019-05-07T20:05:32.159Z,21.73
2019-05-07T20:10:43.764Z,21.57
2019-05-07T20:15:54.112Z,22.23
2019-05-07T20:20:59.383Z,21.03
2019-05-07T20:26:04.625Z,22.13
2019-05-07T20:31:11.644Z,22.70
2019-05-07T20:36:16.753Z,20.83
2019-05-07T20:41:23.231Z,21.57
2019-05-07T20:46:28.520Z,22.63
2019-05-07T20:51:33.638Z,25.50
2019-05-07T20:56:42.014Z,23.90
2019-05-07T21:01:47.216Z,21.87
2019-05-07T21:06:52.694Z,23.87
2019-05-07T21:11:58.908Z,21.60
2019-05-07T21:17:04.000Z,22.83
2019-05-07T21:22:08.962Z,24.63
2019-05-07T21:27:14.108Z,24.87
2019-05-07T21:32:19.179Z,24.23
2019-05-07T21:37:24.274Z,25.80
2019-05-07T21:42:31.975Z,23.50
2019-05-07T21:47:36.233Z,26.90
2019-05-07T21:52:43.555Z,25.00
2019-05-07T21:58:07.076Z,27.77
2019-05-07T22:03:14.952Z,27.03
2019-05-07T22:08:21.910Z,28.03
2019-05-07T22:13:28.364Z,27.63
2019-05-07T22:18:33.963Z,27.40
2019-05-07T22:23:39.116Z,25.33
2019-05-07T22:28:44.149Z,24.37
2019-05-07T22:33:59.370Z,23.67
2019-05-07T22:39:05.008Z,28.00
2019-05-07T22:44:12.110Z,26.03
2019-05-07T22:49:17.316Z,27.77
2019-05-07T22:54:22.709Z,27.80
2019-05-07T22:59:27.780Z,26.57
2019-05-07T23:04:39.175Z,26.33
2019-05-07T23:09:44.898Z,30.13
2019-05-07T23:14:51.454Z,28.70
2019-05-07T23:19:56.845Z,30.73
2019-05-07T23:25:01.948Z,31.00
2019-05-07T23:30:07.019Z,33.30
2019-05-07T23:35:12.784Z,32.33
2019-05-07T23:40:30.876Z,38.43
2019-05-07T23:45:35.886Z,35.40
2019-05-07T23:50:41.879Z,37.27
2019-05-07T23:55:46.978Z,33.97
